sensor_id;sensor_type;location;lat;lon;timestamp;pressure;altitude;pressure_sealevel;temperature;humidity
38718;BME280;24468;52.128;9.278;2023-05-27T00:01:44;102064.72;;;10.24;100.00
38718;BME280;24468;52.128;9.278;2023-05-27T00:04:10;102068.00;;;10.41;100.00
38718;BME280;24468;52.128;9.278;2023-05-27T00:06:36;102059.00;;;10.42;100.00
38718;BME280;24468;52.128;9.278;2023-05-27T00:09:01;102059.81;;;10.46;100.00
38718;BME280;24468;52.128;9.278;2023-05-27T00:11:27;102063.44;;;10.45;100.00
38718;BME280;24468;52.128;9.278;2023-05-27T00:13:53;102061.78;;;10.38;100.00
38718;BME280;24468;52.128;9.278;2023-05-27T00:16:18;102063.59;;;10.36;100.00
38718;BME280;24468;52.128;9.278;2023-05-27T00:18:46;102068.13;;;10.34;100.00
38718;BME280;24468;52.128;9.278;2023-05-27T00:21:13;102062.06;;;10.21;100.00
38718;BME280;24468;52.128;9.278;2023-05-27T00:23:38;102068.13;;;10.35;100.00
38718;BME280;24468;52.128;9.278;2023-05-27T00:26:04;102056.81;;;10.13;100.00
38718;BME280;24468;52.128;9.278;2023-05-27T00:28:30;102058.00;;;9.98;100.00
38718;BME280;24468;52.128;9.278;2023-05-27T00:30:57;102062.97;;;10.20;100.00
38718;BME280;24468;52.128;9.278;2023-05-27T00:33:23;102058.56;;;10.14;100.00
38718;BME280;24468;52.128;9.278;2023-05-27T00:35:49;102052.09;;;10.26;100.00
38718;BME280;24468;52.128;9.278;2023-05-27T00:38:15;102058.50;;;10.20;100.00
38718;BME280;24468;52.128;9.278;2023-05-27T00:40:41;102063.16;;;10.11;100.00
38718;BME280;24468;52.128;9.278;2023-05-27T00:43:07;102060.34;;;10.17;100.00
38718;BME280;24468;52.128;9.278;2023-05-27T00:45:32;102065.97;;;10.05;100.00
38718;BME280;24468;52.128;9.278;2023-05-27T00:47:59;102060.38;;;10.15;100.00
38718;BME280;24468;52.128;9.278;2023-05-27T00:50:27;102054.00;;;10.19;100.00
38718;BME280;24468;52.128;9.278;2023-05-27T00:52:53;102053.09;;;10.20;100.00
38718;BME280;24468;52.128;9.278;2023-05-27T00:55:22;102054.28;;;10.04;100.00
38718;BME280;24468;52.128;9.278;2023-05-27T00:57:47;102053.31;;;10.08;100.00
38718;BME280;24468;52.128;9.278;2023-05-27T01:00:14;102049.66;;;10.12;100.00
38718;BME280;24468;52.128;9.278;2023-05-27T01:02:40;102056.31;;;9.90;100.00
38718;BME280;24468;52.128;9.278;2023-05-27T01:05:10;102056.72;;;9.68;100.00
38718;BME280;24468;52.128;9.278;2023-05-27T01:08:21;102054.91;;;9.67;100.00
38718;BME280;24468;52.128;9.278;2023-05-27T01:10:53;102056.53;;;9.77;100.00
38718;BME280;24468;52.128;9.278;2023-05-27T01:16:03;102051.75;;;9.95;100.00
38718;BME280;24468;52.128;9.278;2023-05-27T01:18:32;102056.38;;;9.88;100.00
38718;BME280;24468;52.128;9.278;2023-05-27T01:21:11;102048.97;;;9.99;100.00
38718;BME280;24468;52.128;9.278;2023-05-27T01:23:46;102042.66;;;10.00;100.00
38718;BME280;24468;52.128;9.278;2023-05-27T01:26:12;102045.28;;;10.05;100.00
38718;BME280;24468;52.128;9.278;2023-05-27T01:28:38;102045.34;;;10.00;100.00
38718;BME280;24468;52.128;9.278;2023-05-27T01:31:16;102042.06;;;9.83;100.00
38718;BME280;24468;52.128;9.278;2023-05-27T01:34:15;102036.50;;;9.94;100.00
38718;BME280;24468;52.128;9.278;2023-05-27T01:36:49;102049.91;;;9.97;100.00
38718;BME280;24468;52.128;9.278;2023-05-27T01:39:16;102044.88;;;9.77;100.00
38718;BME280;24468;52.128;9.278;2023-05-27T01:41:43;102041.19;;;9.83;100.00
38718;BME280;24468;52.128;9.278;2023-05-27T01:44:11;102033.28;;;9.72;100.00
38718;BME280;24468;52.128;9.278;2023-05-27T01:46:36;102035.38;;;9.54;100.00
38718;BME280;24468;52.128;9.278;2023-05-27T01:49:03;102035.34;;;9.56;100.00
38718;BME280;24468;52.128;9.278;2023-05-27T01:51:29;102039.09;;;9.46;100.00
38718;BME280;24468;52.128;9.278;2023-05-27T01:53:54;102039.03;;;9.50;100.00
38718;BME280;24468;52.128;9.278;2023-05-27T01:56:20;102042.44;;;9.01;100.00
38718;BME280;24468;52.128;9.278;2023-05-27T01:58:47;102035.16;;;9.11;100.00
38718;BME280;24468;52.128;9.278;2023-05-27T02:01:13;102035.03;;;9.17;100.00
38718;BME280;24468;52.128;9.278;2023-05-27T02:03:38;102041.25;;;9.21;100.00
38718;BME280;24468;52.128;9.278;2023-05-27T02:06:04;102039.50;;;9.18;100.00
38718;BME280;24468;52.128;9.278;2023-05-27T02:08:29;102038.63;;;9.18;100.00
38718;BME280;24468;52.128;9.278;2023-05-27T02:10:55;102042.72;;;8.81;100.00
38718;BME280;24468;52.128;9.278;2023-05-27T02:13:21;102041.72;;;8.88;100.00
38718;BME280;24468;52.128;9.278;2023-05-27T02:15:46;102033.41;;;9.07;100.00
38718;BME280;24468;52.128;9.278;2023-05-27T02:18:12;102029.03;;;8.97;100.00
38718;BME280;24468;52.128;9.278;2023-05-27T02:20:38;102025.41;;;9.01;100.00
38718;BME280;24468;52.128;9.278;2023-05-27T02:23:06;102021.06;;;8.90;100.00
38718;BME280;24468;52.128;9.278;2023-05-27T02:25:32;102020.94;;;9.00;100.00
38718;BME280;24468;52.128;9.278;2023-05-27T02:27:58;102022.75;;;8.98;100.00
38718;BME280;24468;52.128;9.278;2023-05-27T02:30:23;102021.00;;;8.95;100.00
38718;BME280;24468;52.128;9.278;2023-05-27T02:32:49;102028.25;;;8.92;100.00
38718;BME280;24468;52.128;9.278;2023-05-27T02:35:14;102028.25;;;8.90;100.00
38718;BME280;24468;52.128;9.278;2023-05-27T02:37:40;102028.69;;;8.55;100.00
38718;BME280;24468;52.128;9.278;2023-05-27T02:40:07;102030.72;;;8.33;100.00
38718;BME280;24468;52.128;9.278;2023-05-27T02:42:33;102028.69;;;8.55;100.00
38718;BME280;24468;52.128;9.278;2023-05-27T02:44:59;102035.00;;;8.52;100.00
38718;BME280;24468;52.128;9.278;2023-05-27T02:47:24;102028.63;;;8.61;100.00
38718;BME280;24468;52.128;9.278;2023-05-27T02:49:50;102034.38;;;8.27;100.00
38718;BME280;24468;52.128;9.278;2023-05-27T02:52:15;102033.53;;;8.23;100.00
38718;BME280;24468;52.128;9.278;2023-05-27T02:54:41;102031.56;;;8.42;100.00
38718;BME280;24468;52.128;9.278;2023-05-27T02:57:06;102030.72;;;8.33;100.00
38718;BME280;24468;52.128;9.278;2023-05-27T02:59:32;102028.16;;;8.23;100.00
38718;BME280;24468;52.128;9.278;2023-05-27T03:01:58;102032.56;;;8.29;100.00
38718;BME280;24468;52.128;9.278;2023-05-27T03:04:23;102023.50;;;8.36;100.00
38718;BME280;24468;52.128;9.278;2023-05-27T03:06:49;102031.56;;;8.38;100.00
38718;BME280;24468;52.128;9.278;2023-05-27T03:09:14;102026.19;;;8.41;100.00
38718;BME280;24468;52.128;9.278;2023-05-27T03:11:41;102027.03;;;8.44;100.00
38718;BME280;24468;52.128;9.278;2023-05-27T03:14:06;102027.94;;;8.43;100.00
38718;BME280;24468;52.128;9.278;2023-05-27T03:16:31;102035.16;;;8.40;100.00
38718;BME280;24468;52.128;9.278;2023-05-27T03:18:57;102032.41;;;8.48;100.00
38718;BME280;24468;52.128;9.278;2023-05-27T03:21:22;102034.22;;;8.44;100.00
38718;BME280;24468;52.128;9.278;2023-05-27T03:23:48;102035.22;;;8.32;100.00
38718;BME280;24468;52.128;9.278;2023-05-27T03:26:14;102030.69;;;8.37;100.00
38718;BME280;24468;52.128;9.278;2023-05-27T03:28:39;102023.44;;;8.45;100.00
38718;BME280;24468;52.128;9.278;2023-05-27T03:31:05;102028.78;;;8.47;100.00
38718;BME280;24468;52.128;9.278;2023-05-27T03:33:31;102033.38;;;8.39;100.00
38718;BME280;24468;52.128;9.278;2023-05-27T03:35:56;102028.81;;;8.45;100.00
38718;BME280;24468;52.128;9.278;2023-05-27T03:38:22;102032.41;;;8.46;100.00
38718;BME280;24468;52.128;9.278;2023-05-27T03:40:47;102029.72;;;8.44;100.00
38718;BME280;24468;52.128;9.278;2023-05-27T03:43:13;102032.41;;;8.44;100.00
38718;BME280;24468;52.128;9.278;2023-05-27T03:45:38;102028.81;;;8.45;100.00
38718;BME280;24468;52.128;9.278;2023-05-27T03:48:04;102023.25;;;8.61;100.00
38718;BME280;24468;52.128;9.278;2023-05-27T03:50:33;102023.97;;;8.74;100.00
38718;BME280;24468;52.128;9.278;2023-05-27T03:52:59;102017.69;;;8.75;100.00
38718;BME280;24468;52.128;9.278;2023-05-27T03:55:25;102022.22;;;8.71;100.00
38718;BME280;24468;52.128;9.278;2023-05-27T03:57:51;102020.72;;;8.49;100.00
38718;BME280;24468;52.128;9.278;2023-05-27T04:00:17;102022.41;;;8.57;100.00
38718;BME280;24468;52.128;9.278;2023-05-27T04:02:42;102018.59;;;8.75;100.00
38718;BME280;24468;52.128;9.278;2023-05-27T04:05:08;102015.28;;;8.52;100.00
38718;BME280;24468;52.128;9.278;2023-05-27T04:07:34;102013.19;;;8.77;100.00
38718;BME280;24468;52.128;9.278;2023-05-27T04:09:59;102012.25;;;8.81;100.00
38718;BME280;24468;52.128;9.278;2023-05-27T04:12:25;102023.84;;;8.84;100.00
38718;BME280;24468;52.128;9.278;2023-05-27T04:14:51;102019.47;;;8.74;100.00
38718;BME280;24468;52.128;9.278;2023-05-27T04:17:16;102013.22;;;8.75;100.00
38718;BME280;24468;52.128;9.278;2023-05-27T04:19:43;102013.03;;;8.89;100.00
38718;BME280;24468;52.128;9.278;2023-05-27T04:22:09;102022.03;;;8.85;100.00
38718;BME280;24468;52.128;9.278;2023-05-27T04:24:34;102003.16;;;8.89;100.00
38718;BME280;24468;52.128;9.278;2023-05-27T04:27:00;102006.88;;;8.79;100.00
38718;BME280;24468;52.128;9.278;2023-05-27T04:29:28;102005.97;;;8.80;100.00
38718;BME280;24468;52.128;9.278;2023-05-27T04:31:53;102005.66;;;9.02;100.00
38718;BME280;24468;52.128;9.278;2023-05-27T04:34:19;102006.41;;;9.11;100.00
38718;BME280;24468;52.128;9.278;2023-05-27T04:36:45;101992.06;;;9.11;100.00
38718;BME280;24468;52.128;9.278;2023-05-27T04:39:17;101995.38;;;9.28;100.00
38718;BME280;24468;52.128;9.278;2023-05-27T04:41:44;101995.91;;;9.52;100.00
38718;BME280;24468;52.128;9.278;2023-05-27T04:44:11;102001.81;;;9.20;100.00
38718;BME280;24468;52.128;9.278;2023-05-27T04:46:37;102003.16;;;9.47;100.00
38718;BME280;24468;52.128;9.278;2023-05-27T04:49:04;102003.94;;;9.53;100.00
38718;BME280;24468;52.128;9.278;2023-05-27T04:51:30;101999.25;;;9.66;100.00
38718;BME280;24468;52.128;9.278;2023-05-27T04:53:55;102000.13;;;9.68;100.00
38718;BME280;24468;52.128;9.278;2023-05-27T04:56:21;101997.25;;;9.77;100.00
38718;BME280;24468;52.128;9.278;2023-05-27T04:58:47;101985.97;;;10.03;100.00
38718;BME280;24468;52.128;9.278;2023-05-27T05:01:14;101983.75;;;10.25;100.00
38718;BME280;24468;52.128;9.278;2023-05-27T05:03:46;101983.88;;;10.19;100.00
38718;BME280;24468;52.128;9.278;2023-05-27T05:06:28;101988.25;;;10.27;100.00
38718;BME280;24468;52.128;9.278;2023-05-27T05:08:53;101998.81;;;9.89;100.00
38718;BME280;24468;52.128;9.278;2023-05-27T05:11:19;102002.38;;;9.93;100.00
38718;BME280;24468;52.128;9.278;2023-05-27T05:13:44;102001.13;;;10.11;100.00
38718;BME280;24468;52.128;9.278;2023-05-27T05:16:10;102013.78;;;10.07;100.00
38718;BME280;24468;52.128;9.278;2023-05-27T05:18:35;102011.22;;;9.99;100.00
38718;BME280;24468;52.128;9.278;2023-05-27T05:21:01;102012.22;;;9.94;100.00
38718;BME280;24468;52.128;9.278;2023-05-27T05:23:26;102012.16;;;9.97;100.00
38718;BME280;24468;52.128;9.278;2023-05-27T05:25:52;102013.00;;;10.49;100.00
38718;BME280;24468;52.128;9.278;2023-05-27T05:28:23;102009.72;;;10.33;100.00
38718;BME280;24468;52.128;9.278;2023-05-27T05:30:48;102013.81;;;10.52;100.00
38718;BME280;24468;52.128;9.278;2023-05-27T05:33:14;102020.16;;;10.50;100.00
38718;BME280;24468;52.128;9.278;2023-05-27T05:35:40;102012.66;;;10.65;100.00
38718;BME280;24468;52.128;9.278;2023-05-27T05:38:05;102013.34;;;10.75;100.00
38718;BME280;24468;52.128;9.278;2023-05-27T05:40:31;102011.66;;;11.10;100.00
38718;BME280;24468;52.128;9.278;2023-05-27T05:42:57;102010.13;;;11.00;100.00
38718;BME280;24468;52.128;9.278;2023-05-27T05:45:22;102015.28;;;11.09;100.00
38718;BME280;24468;52.128;9.278;2023-05-27T05:47:48;102007.66;;;11.28;100.00
38718;BME280;24468;52.128;9.278;2023-05-27T05:50:13;102011.97;;;11.35;100.00
38718;BME280;24468;52.128;9.278;2023-05-27T05:52:39;102006.06;;;11.19;100.00
38718;BME280;24468;52.128;9.278;2023-05-27T05:55:05;102005.94;;;11.60;100.00
38718;BME280;24468;52.128;9.278;2023-05-27T05:57:31;102018.03;;;11.45;100.00
38718;BME280;24468;52.128;9.278;2023-05-27T05:59:57;102015.78;;;11.62;100.00
38718;BME280;24468;52.128;9.278;2023-05-27T06:02:23;102008.78;;;11.55;100.00
38718;BME280;24468;52.128;9.278;2023-05-27T06:04:50;102004.53;;;11.79;100.00
38718;BME280;24468;52.128;9.278;2023-05-27T06:07:16;102002.28;;;11.98;100.00
38718;BME280;24468;52.128;9.278;2023-05-27T06:09:41;101994.91;;;12.36;100.00
38718;BME280;24468;52.128;9.278;2023-05-27T06:12:07;101996.97;;;12.28;100.00
38718;BME280;24468;52.128;9.278;2023-05-27T06:14:33;101996.13;;;12.57;100.00
38718;BME280;24468;52.128;9.278;2023-05-27T06:16:58;102009.19;;;12.42;100.00
38718;BME280;24468;52.128;9.278;2023-05-27T06:19:24;102001.88;;;12.13;100.00
38718;BME280;24468;52.128;9.278;2023-05-27T06:21:49;102007.06;;;12.21;100.00
38718;BME280;24468;52.128;9.278;2023-05-27T06:24:15;102005.81;;;12.64;100.00
38718;BME280;24468;52.128;9.278;2023-05-27T06:26:40;102004.41;;;13.10;100.00
38718;BME280;24468;52.128;9.278;2023-05-27T06:29:06;102006.06;;;12.86;100.00
38718;BME280;24468;52.128;9.278;2023-05-27T06:31:31;102007.56;;;12.96;100.00
38718;BME280;24468;52.128;9.278;2023-05-27T06:33:58;101997.22;;;12.81;100.00
38718;BME280;24468;52.128;9.278;2023-05-27T06:36:24;102002.25;;;12.93;100.00
38718;BME280;24468;52.128;9.278;2023-05-27T06:38:49;102003.34;;;12.86;100.00
38718;BME280;24468;52.128;9.278;2023-05-27T06:41:15;101990.94;;;13.08;100.00
38718;BME280;24468;52.128;9.278;2023-05-27T06:43:42;101987.19;;;13.41;100.00
38718;BME280;24468;52.128;9.278;2023-05-27T06:46:07;101993.78;;;13.04;100.00
38718;BME280;24468;52.128;9.278;2023-05-27T06:48:33;101996.47;;;13.05;100.00
38718;BME280;24468;52.128;9.278;2023-05-27T06:50:59;101983.91;;;13.31;100.00
38718;BME280;24468;52.128;9.278;2023-05-27T06:53:25;101981.31;;;13.81;100.00
38718;BME280;24468;52.128;9.278;2023-05-27T06:55:50;101980.22;;;14.12;100.00
38718;BME280;24468;52.128;9.278;2023-05-27T06:58:16;101988.66;;;13.51;100.00
38718;BME280;24468;52.128;9.278;2023-05-27T07:00:41;101994.91;;;13.26;100.00
38718;BME280;24468;52.128;9.278;2023-05-27T07:03:07;101985.88;;;13.24;100.00
38718;BME280;24468;52.128;9.278;2023-05-27T07:05:32;101980.78;;;13.43;100.00
38718;BME280;24468;52.128;9.278;2023-05-27T07:07:58;101977.06;;;13.99;100.00
38718;BME280;24468;52.128;9.278;2023-05-27T07:10:23;101972.88;;;14.39;100.00
38718;BME280;24468;52.128;9.278;2023-05-27T07:12:49;101967.69;;;14.58;100.00
38718;BME280;24468;52.128;9.278;2023-05-27T07:15:14;101968.34;;;14.14;100.00
38718;BME280;24468;52.128;9.278;2023-05-27T07:17:40;101960.00;;;14.69;100.00
38718;BME280;24468;52.128;9.278;2023-05-27T07:20:06;101963.91;;;15.07;100.00
38718;BME280;24468;52.128;9.278;2023-05-27T07:22:32;101950.53;;;15.25;100.00
38718;BME280;24468;52.128;9.278;2023-05-27T07:24:57;101952.59;;;14.96;100.00
38718;BME280;24468;52.128;9.278;2023-05-27T07:27:23;101954.91;;;15.27;100.00
38718;BME280;24468;52.128;9.278;2023-05-27T07:29:48;101940.97;;;15.15;100.00
38718;BME280;24468;52.128;9.278;2023-05-27T07:32:14;101949.66;;;15.67;100.00
38718;BME280;24468;52.128;9.278;2023-05-27T07:34:39;101946.59;;;15.32;100.00
38718;BME280;24468;52.128;9.278;2023-05-27T07:37:05;101944.00;;;15.29;100.00
38718;BME280;24468;52.128;9.278;2023-05-27T07:39:30;101937.44;;;15.12;100.00
38718;BME280;24468;52.128;9.278;2023-05-27T07:41:56;101939.13;;;15.37;100.00
38718;BME280;24468;52.128;9.278;2023-05-27T07:44:22;101936.50;;;15.56;100.00
38718;BME280;24468;52.128;9.278;2023-05-27T07:46:47;101929.66;;;15.25;100.00
38718;BME280;24468;52.128;9.278;2023-05-27T07:49:13;101924.19;;;15.68;100.00
38718;BME280;24468;52.128;9.278;2023-05-27T07:51:39;101937.97;;;16.06;100.00
38718;BME280;24468;52.128;9.278;2023-05-27T07:54:05;101920.03;;;16.02;100.00
38718;BME280;24468;52.128;9.278;2023-05-27T07:56:31;101916.63;;;16.36;100.00
38718;BME280;24468;52.128;9.278;2023-05-27T07:58:57;101917.38;;;16.00;100.00
38718;BME280;24468;52.128;9.278;2023-05-27T08:01:22;101915.50;;;16.21;100.00
38718;BME280;24468;52.128;9.278;2023-05-27T08:03:48;101912.06;;;16.55;100.00
38718;BME280;24468;52.128;9.278;2023-05-27T08:06:15;101895.09;;;16.88;100.00
38718;BME280;24468;52.128;9.278;2023-05-27T08:08:41;101897.97;;;16.85;100.00
38718;BME280;24468;52.128;9.278;2023-05-27T08:11:06;101897.94;;;16.66;100.00
38718;BME280;24468;52.128;9.278;2023-05-27T08:13:32;101891.53;;;16.86;100.00
38718;BME280;24468;52.128;9.278;2023-05-27T08:15:57;101887.34;;;16.98;100.00
38718;BME280;24468;52.128;9.278;2023-05-27T08:18:23;101887.09;;;17.02;100.00
38718;BME280;24468;52.128;9.278;2023-05-27T08:20:48;101888.34;;;16.38;100.00
38718;BME280;24468;52.128;9.278;2023-05-27T08:23:14;101883.19;;;16.13;100.00
38718;BME280;24468;52.128;9.278;2023-05-27T08:25:40;101880.34;;;16.73;100.00
38718;BME280;24468;52.128;9.278;2023-05-27T08:28:05;101874.38;;;17.20;100.00
38718;BME280;24468;52.128;9.278;2023-05-27T08:30:32;101877.53;;;16.56;100.00
38718;BME280;24468;52.128;9.278;2023-05-27T08:32:58;101869.09;;;17.17;98.92
38718;BME280;24468;52.128;9.278;2023-05-27T08:35:23;101868.94;;;17.38;95.69
38718;BME280;24468;52.128;9.278;2023-05-27T08:37:49;101859.81;;;17.56;93.82
38718;BME280;24468;52.128;9.278;2023-05-27T08:40:17;101860.44;;;17.61;91.95
38718;BME280;24468;52.128;9.278;2023-05-27T08:42:44;101858.34;;;17.14;93.90
38718;BME280;24468;52.128;9.278;2023-05-27T08:45:10;101859.72;;;17.40;95.84
38718;BME280;24468;52.128;9.278;2023-05-27T08:47:35;101846.47;;;17.67;93.40
38718;BME280;24468;52.128;9.278;2023-05-27T08:50:03;101848.03;;;18.06;90.60
38718;BME280;24468;52.128;9.278;2023-05-27T08:52:29;101856.25;;;17.71;91.66
38718;BME280;24468;52.128;9.278;2023-05-27T08:54:57;101844.09;;;18.28;90.95
38718;BME280;24468;52.128;9.278;2023-05-27T08:57:28;101837.00;;;18.57;87.67
38718;BME280;24468;52.128;9.278;2023-05-27T08:59:54;101837.34;;;18.66;86.74
38718;BME280;24468;52.128;9.278;2023-05-27T09:02:21;101836.81;;;17.60;83.10
38718;BME280;24468;52.128;9.278;2023-05-27T09:04:47;101834.34;;;17.38;89.58
38718;BME280;24468;52.128;9.278;2023-05-27T09:07:12;101828.41;;;17.65;83.89
38718;BME280;24468;52.128;9.278;2023-05-27T09:09:42;101823.78;;;18.00;84.43
38718;BME280;24468;52.128;9.278;2023-05-27T09:12:07;101829.03;;;17.87;83.93
38718;BME280;24468;52.128;9.278;2023-05-27T09:14:36;101831.59;;;18.39;83.21
38718;BME280;24468;52.128;9.278;2023-05-27T09:17:07;101831.06;;;18.64;78.99
38718;BME280;24468;52.128;9.278;2023-05-27T09:19:33;101836.56;;;17.99;77.87
38718;BME280;24468;52.128;9.278;2023-05-27T09:21:58;101834.16;;;17.93;81.00
38718;BME280;24468;52.128;9.278;2023-05-27T09:24:24;101822.25;;;18.28;77.61
38718;BME280;24468;52.128;9.278;2023-05-27T09:26:54;101820.16;;;18.33;76.13
38718;BME280;24468;52.128;9.278;2023-05-27T09:29:26;101824.16;;;17.24;80.89
38718;BME280;24468;52.128;9.278;2023-05-27T09:31:55;101819.94;;;18.20;79.25
38718;BME280;24468;52.128;9.278;2023-05-27T09:34:21;101820.31;;;18.61;75.88
38718;BME280;24468;52.128;9.278;2023-05-27T09:36:50;101818.22;;;18.35;75.51
38718;BME280;24468;52.128;9.278;2023-05-27T09:39:18;101819.88;;;19.01;72.33
38718;BME280;24468;52.128;9.278;2023-05-27T09:41:54;101818.03;;;19.01;69.17
38718;BME280;24468;52.128;9.278;2023-05-27T09:44:34;101817.72;;;19.06;62.83
38718;BME280;24468;52.128;9.278;2023-05-27T09:47:04;101805.84;;;19.51;62.93
38718;BME280;24468;52.128;9.278;2023-05-27T09:49:32;101808.81;;;19.63;63.10
38718;BME280;24468;52.128;9.278;2023-05-27T09:51:58;101806.41;;;18.82;63.97
38718;BME280;24468;52.128;9.278;2023-05-27T09:54:24;101808.81;;;19.18;68.32
38718;BME280;24468;52.128;9.278;2023-05-27T09:56:51;101810.16;;;19.86;65.65
38718;BME280;24468;52.128;9.278;2023-05-27T09:59:17;101799.66;;;19.92;65.50
38718;BME280;24468;52.128;9.278;2023-05-27T10:01:45;101800.59;;;20.34;61.89
38718;BME280;24468;52.128;9.278;2023-05-27T10:04:14;101790.66;;;20.19;58.80
38718;BME280;24468;52.128;9.278;2023-05-27T10:06:41;101803.75;;;20.28;59.77
38718;BME280;24468;52.128;9.278;2023-05-27T10:09:06;101788.75;;;20.34;58.78
38718;BME280;24468;52.128;9.278;2023-05-27T10:11:33;101799.38;;;19.52;59.44
38718;BME280;24468;52.128;9.278;2023-05-27T10:14:03;101784.94;;;19.65;59.91
38718;BME280;24468;52.128;9.278;2023-05-27T10:16:29;101780.47;;;20.07;59.94
38718;BME280;24468;52.128;9.278;2023-05-27T10:18:58;101783.31;;;19.76;58.59
38718;BME280;24468;52.128;9.278;2023-05-27T10:21:28;101787.56;;;20.52;55.53
38718;BME280;24468;52.128;9.278;2023-05-27T10:23:56;101783.91;;;20.25;58.16
38718;BME280;24468;52.128;9.278;2023-05-27T10:26:42;101776.00;;;20.47;57.13
38718;BME280;24468;52.128;9.278;2023-05-27T10:29:10;101772.09;;;20.78;58.44
38718;BME280;24468;52.128;9.278;2023-05-27T10:31:45;101769.28;;;20.80;57.49
38718;BME280;24468;52.128;9.278;2023-05-27T10:34:11;101765.38;;;20.97;55.64
38718;BME280;24468;52.128;9.278;2023-05-27T10:36:37;101766.53;;;20.80;58.15
38718;BME280;24468;52.128;9.278;2023-05-27T10:39:13;101768.50;;;20.36;57.50
38718;BME280;24468;52.128;9.278;2023-05-27T10:41:43;101752.66;;;20.69;56.03
38718;BME280;24468;52.128;9.278;2023-05-27T10:44:13;101756.06;;;20.72;58.03
38718;BME280;24468;52.128;9.278;2023-05-27T10:46:42;101758.13;;;20.96;59.57
38718;BME280;24468;52.128;9.278;2023-05-27T10:49:14;101738.28;;;21.05;58.32
38718;BME280;24468;52.128;9.278;2023-05-27T10:51:42;101743.25;;;20.73;62.93
38718;BME280;24468;52.128;9.278;2023-05-27T10:54:09;101738.44;;;21.29;60.75
38718;BME280;24468;52.128;9.278;2023-05-27T10:56:34;101740.50;;;20.31;62.40
38718;BME280;24468;52.128;9.278;2023-05-27T10:59:05;101741.75;;;19.98;60.30
38718;BME280;24468;52.128;9.278;2023-05-27T11:01:34;101728.88;;;20.69;58.05
38718;BME280;24468;52.128;9.278;2023-05-27T11:04:00;101736.94;;;20.85;59.11
38718;BME280;24468;52.128;9.278;2023-05-27T11:06:26;101724.94;;;19.76;59.05
38718;BME280;24468;52.128;9.278;2023-05-27T11:08:52;101732.94;;;19.50;59.50
38718;BME280;24468;52.128;9.278;2023-05-27T11:11:17;101720.16;;;20.35;56.25
38718;BME280;24468;52.128;9.278;2023-05-27T11:13:45;101725.22;;;20.41;58.20
38718;BME280;24468;52.128;9.278;2023-05-27T11:16:13;101718.16;;;20.10;61.69
38718;BME280;24468;52.128;9.278;2023-05-27T11:18:43;101716.44;;;19.81;63.74
38718;BME280;24468;52.128;9.278;2023-05-27T11:21:10;101712.88;;;20.49;59.70
38718;BME280;24468;52.128;9.278;2023-05-27T11:23:45;101706.53;;;20.88;60.18
38718;BME280;24468;52.128;9.278;2023-05-27T11:26:21;101720.38;;;20.32;60.80
38718;BME280;24468;52.128;9.278;2023-05-27T11:28:53;101716.69;;;21.13;57.72
38718;BME280;24468;52.128;9.278;2023-05-27T11:31:21;101708.75;;;20.56;57.77
38718;BME280;24468;52.128;9.278;2023-05-27T11:33:50;101709.41;;;20.59;56.36
38718;BME280;24468;52.128;9.278;2023-05-27T11:36:16;101708.25;;;20.22;58.88
38718;BME280;24468;52.128;9.278;2023-05-27T11:38:59;101693.81;;;20.87;60.03
38718;BME280;24468;52.128;9.278;2023-05-27T11:41:29;101697.06;;;20.25;60.94
38718;BME280;24468;52.128;9.278;2023-05-27T11:44:06;101705.09;;;19.58;58.63
38718;BME280;24468;52.128;9.278;2023-05-27T11:46:35;101698.06;;;19.68;61.34
38718;BME280;24468;52.128;9.278;2023-05-27T11:49:06;101687.28;;;20.48;60.87
38718;BME280;24468;52.128;9.278;2023-05-27T11:51:45;101692.41;;;20.13;59.61
38718;BME280;24468;52.128;9.278;2023-05-27T11:54:23;101684.53;;;20.62;57.08
38718;BME280;24468;52.128;9.278;2023-05-27T11:56:50;101675.84;;;21.34;55.62
38718;BME280;24468;52.128;9.278;2023-05-27T11:59:17;101668.59;;;21.07;55.99
38718;BME280;24468;52.128;9.278;2023-05-27T12:01:43;101669.53;;;20.41;56.81
38718;BME280;24468;52.128;9.278;2023-05-27T12:04:10;101669.13;;;21.00;55.89
38718;BME280;24468;52.128;9.278;2023-05-27T12:06:36;101669.06;;;19.93;59.28
38718;BME280;24468;52.128;9.278;2023-05-27T12:09:04;101673.78;;;20.18;57.50
38718;BME280;24468;52.128;9.278;2023-05-27T12:11:31;101665.44;;;21.26;55.83
38718;BME280;24468;52.128;9.278;2023-05-27T12:13:57;101655.47;;;21.88;54.97
38718;BME280;24468;52.128;9.278;2023-05-27T12:16:23;101645.88;;;22.06;52.44
38718;BME280;24468;52.128;9.278;2023-05-27T12:18:49;101647.63;;;21.58;54.17
38718;BME280;24468;52.128;9.278;2023-05-27T12:21:15;101646.75;;;21.57;56.35
38718;BME280;24468;52.128;9.278;2023-05-27T12:23:41;101638.81;;;21.78;53.40
38718;BME280;24468;52.128;9.278;2023-05-27T12:26:07;101640.41;;;22.54;53.00
38718;BME280;24468;52.128;9.278;2023-05-27T12:28:33;101619.91;;;22.58;50.92
38718;BME280;24468;52.128;9.278;2023-05-27T12:30:58;101629.91;;;21.74;53.09
38718;BME280;24468;52.128;9.278;2023-05-27T12:33:24;101630.59;;;21.65;54.42
38718;BME280;24468;52.128;9.278;2023-05-27T12:35:50;101620.75;;;21.87;53.61
38718;BME280;24468;52.128;9.278;2023-05-27T12:38:15;101614.16;;;22.61;52.76
38718;BME280;24468;52.128;9.278;2023-05-27T12:40:41;101624.38;;;22.95;51.11
38718;BME280;24468;52.128;9.278;2023-05-27T12:43:06;101606.63;;;22.52;50.24
38718;BME280;24468;52.128;9.278;2023-05-27T12:45:32;101611.28;;;22.28;49.80
38718;BME280;24468;52.128;9.278;2023-05-27T12:48:01;101608.78;;;21.38;51.53